sensor_id;sensor_type;location;lat;lon;timestamp;P1;durP1;ratioP1;P2;durP2;ratioP2
7761;SDS011;3925;48.636;9.516;2023-07-24T00:02:25;10.67;;;8.30;;
7761;SDS011;3925;48.636;9.516;2023-07-24T00:04:52;8.23;;;7.40;;
7761;SDS011;3925;48.636;9.516;2023-07-24T00:07:21;8.83;;;6.60;;
7761;SDS011;3925;48.636;9.516;2023-07-24T00:09:48;9.10;;;8.13;;
7761;SDS011;3925;48.636;9.516;2023-07-24T00:12:15;8.80;;;7.70;;
7761;SDS011;3925;48.636;9.516;2023-07-24T00:14:41;8.73;;;7.10;;
7761;SDS011;3925;48.636;9.516;2023-07-24T00:17:08;8.80;;;7.20;;
7761;SDS011;3925;48.636;9.516;2023-07-24T00:19:35;7.20;;;6.30;;
7761;SDS011;3925;48.636;9.516;2023-07-24T00:22:02;9.13;;;7.70;;
7761;SDS011;3925;48.636;9.516;2023-07-24T00:24:30;8.17;;;7.03;;
7761;SDS011;3925;48.636;9.516;2023-07-24T00:26:58;7.80;;;7.00;;
7761;SDS011;3925;48.636;9.516;2023-07-24T00:29:24;7.77;;;6.50;;
7761;SDS011;3925;48.636;9.516;2023-07-24T00:31:51;8.80;;;7.63;;
7761;SDS011;3925;48.636;9.516;2023-07-24T00:34:18;9.20;;;7.57;;
7761;SDS011;3925;48.636;9.516;2023-07-24T00:36:45;8.30;;;7.43;;
7761;SDS011;3925;48.636;9.516;2023-07-24T00:39:13;10.43;;;8.70;;
7761;SDS011;3925;48.636;9.516;2023-07-24T00:41:42;8.90;;;7.50;;
7761;SDS011;3925;48.636;9.516;2023-07-24T00:44:09;9.60;;;8.07;;
7761;SDS011;3925;48.636;9.516;2023-07-24T00:46:36;9.20;;;8.00;;
7761;SDS011;3925;48.636;9.516;2023-07-24T00:49:03;8.30;;;7.33;;
7761;SDS011;3925;48.636;9.516;2023-07-24T00:51:31;8.80;;;7.67;;
7761;SDS011;3925;48.636;9.516;2023-07-24T00:54:00;10.10;;;8.50;;
7761;SDS011;3925;48.636;9.516;2023-07-24T00:56:28;7.77;;;7.00;;
7761;SDS011;3925;48.636;9.516;2023-07-24T00:58:58;9.63;;;7.97;;
7761;SDS011;3925;48.636;9.516;2023-07-24T01:01:25;9.60;;;8.60;;
7761;SDS011;3925;48.636;9.516;2023-07-24T01:03:52;9.43;;;8.30;;
7761;SDS011;3925;48.636;9.516;2023-07-24T01:06:22;8.97;;;7.70;;
7761;SDS011;3925;48.636;9.516;2023-07-24T01:08:50;9.47;;;8.27;;
7761;SDS011;3925;48.636;9.516;2023-07-24T01:11:18;8.47;;;7.57;;
7761;SDS011;3925;48.636;9.516;2023-07-24T01:13:48;8.67;;;7.53;;
7761;SDS011;3925;48.636;9.516;2023-07-24T01:16:23;11.20;;;8.30;;
7761;SDS011;3925;48.636;9.516;2023-07-24T01:18:55;10.33;;;7.07;;
7761;SDS011;3925;48.636;9.516;2023-07-24T01:21:28;10.23;;;7.97;;
7761;SDS011;3925;48.636;9.516;2023-07-24T01:24:08;9.97;;;8.50;;
7761;SDS011;3925;48.636;9.516;2023-07-24T01:26:47;8.83;;;7.87;;
7761;SDS011;3925;48.636;9.516;2023-07-24T01:29:14;8.20;;;7.33;;
7761;SDS011;3925;48.636;9.516;2023-07-24T01:31:41;8.60;;;7.63;;
7761;SDS011;3925;48.636;9.516;2023-07-24T01:34:08;10.53;;;8.17;;
7761;SDS011;3925;48.636;9.516;2023-07-24T01:36:34;10.97;;;8.60;;
7761;SDS011;3925;48.636;9.516;2023-07-24T01:39:01;12.20;;;8.80;;
7761;SDS011;3925;48.636;9.516;2023-07-24T01:41:28;9.23;;;6.83;;
7761;SDS011;3925;48.636;9.516;2023-07-24T01:43:58;13.77;;;8.33;;
7761;SDS011;3925;48.636;9.516;2023-07-24T01:46:25;9.90;;;7.40;;
7761;SDS011;3925;48.636;9.516;2023-07-24T01:48:52;8.60;;;7.70;;
7761;SDS011;3925;48.636;9.516;2023-07-24T01:51:19;9.23;;;8.23;;
7761;SDS011;3925;48.636;9.516;2023-07-24T01:53:45;9.83;;;7.97;;
7761;SDS011;3925;48.636;9.516;2023-07-24T01:56:12;9.30;;;7.70;;
7761;SDS011;3925;48.636;9.516;2023-07-24T01:58:39;9.77;;;8.27;;
7761;SDS011;3925;48.636;9.516;2023-07-24T02:01:07;9.00;;;7.70;;
7761;SDS011;3925;48.636;9.516;2023-07-24T02:03:34;8.90;;;8.00;;
7761;SDS011;3925;48.636;9.516;2023-07-24T02:06:01;9.73;;;8.00;;
7761;SDS011;3925;48.636;9.516;2023-07-24T02:08:28;8.97;;;8.07;;
7761;SDS011;3925;48.636;9.516;2023-07-24T02:10:54;11.50;;;8.07;;
7761;SDS011;3925;48.636;9.516;2023-07-24T02:13:21;10.00;;;7.10;;
7761;SDS011;3925;48.636;9.516;2023-07-24T02:15:48;9.30;;;8.40;;
7761;SDS011;3925;48.636;9.516;2023-07-24T02:18:16;8.83;;;7.40;;
7761;SDS011;3925;48.636;9.516;2023-07-24T02:20:48;11.80;;;9.07;;
7761;SDS011;3925;48.636;9.516;2023-07-24T02:23:15;10.13;;;8.23;;
7761;SDS011;3925;48.636;9.516;2023-07-24T02:25:42;10.47;;;8.67;;
7761;SDS011;3925;48.636;9.516;2023-07-24T02:28:09;11.33;;;9.00;;
7761;SDS011;3925;48.636;9.516;2023-07-24T02:30:37;9.50;;;7.97;;
7761;SDS011;3925;48.636;9.516;2023-07-24T02:33:04;9.07;;;8.13;;
7761;SDS011;3925;48.636;9.516;2023-07-24T02:35:37;10.67;;;8.30;;
7761;SDS011;3925;48.636;9.516;2023-07-24T02:38:04;9.60;;;7.70;;
7761;SDS011;3925;48.636;9.516;2023-07-24T02:40:31;7.93;;;7.17;;
7761;SDS011;3925;48.636;9.516;2023-07-24T02:42:58;10.70;;;8.40;;
7761;SDS011;3925;48.636;9.516;2023-07-24T02:45:25;9.93;;;7.90;;
7761;SDS011;3925;48.636;9.516;2023-07-24T02:47:52;9.23;;;7.30;;
7761;SDS011;3925;48.636;9.516;2023-07-24T02:50:19;9.97;;;8.33;;
7761;SDS011;3925;48.636;9.516;2023-07-24T02:52:47;9.07;;;7.93;;
7761;SDS011;3925;48.636;9.516;2023-07-24T02:55:14;9.80;;;8.80;;
7761;SDS011;3925;48.636;9.516;2023-07-24T02:57:40;10.93;;;8.37;;
7761;SDS011;3925;48.636;9.516;2023-07-24T03:00:08;8.63;;;7.23;;
7761;SDS011;3925;48.636;9.516;2023-07-24T03:02:35;10.10;;;9.10;;
7761;SDS011;3925;48.636;9.516;2023-07-24T03:05:02;9.70;;;7.93;;
7761;SDS011;3925;48.636;9.516;2023-07-24T03:07:29;8.73;;;7.83;;
7761;SDS011;3925;48.636;9.516;2023-07-24T03:09:58;10.30;;;8.10;;
7761;SDS011;3925;48.636;9.516;2023-07-24T03:12:24;8.83;;;7.73;;
7761;SDS011;3925;48.636;9.516;2023-07-24T03:14:51;9.10;;;7.40;;
7761;SDS011;3925;48.636;9.516;2023-07-24T03:17:18;13.90;;;7.80;;
7761;SDS011;3925;48.636;9.516;2023-07-24T03:19:45;10.27;;;7.10;;
7761;SDS011;3925;48.636;9.516;2023-07-24T03:22:12;11.50;;;8.67;;
7761;SDS011;3925;48.636;9.516;2023-07-24T03:24:38;7.47;;;6.70;;
7761;SDS011;3925;48.636;9.516;2023-07-24T03:27:07;9.20;;;8.07;;
7761;SDS011;3925;48.636;9.516;2023-07-24T03:29:33;9.60;;;6.40;;
7761;SDS011;3925;48.636;9.516;2023-07-24T03:32:02;8.40;;;7.50;;
7761;SDS011;3925;48.636;9.516;2023-07-24T03:34:29;8.70;;;7.80;;
7761;SDS011;3925;48.636;9.516;2023-07-24T03:36:56;8.67;;;7.60;;
7761;SDS011;3925;48.636;9.516;2023-07-24T03:39:23;9.43;;;7.67;;
7761;SDS011;3925;48.636;9.516;2023-07-24T03:41:50;8.53;;;7.17;;
7761;SDS011;3925;48.636;9.516;2023-07-24T03:44:18;8.80;;;6.70;;
7761;SDS011;3925;48.636;9.516;2023-07-24T03:46:44;10.40;;;7.00;;
7761;SDS011;3925;48.636;9.516;2023-07-24T03:49:11;11.43;;;8.03;;
7761;SDS011;3925;48.636;9.516;2023-07-24T03:51:38;10.40;;;7.93;;
7761;SDS011;3925;48.636;9.516;2023-07-24T03:54:05;9.30;;;7.20;;
7761;SDS011;3925;48.636;9.516;2023-07-24T03:56:32;9.87;;;7.70;;
7761;SDS011;3925;48.636;9.516;2023-07-24T03:58:59;9.80;;;8.40;;
7761;SDS011;3925;48.636;9.516;2023-07-24T04:01:27;12.13;;;8.50;;
7761;SDS011;3925;48.636;9.516;2023-07-24T04:03:53;11.07;;;8.30;;
7761;SDS011;3925;48.636;9.516;2023-07-24T04:06:20;10.90;;;8.57;;
7761;SDS011;3925;48.636;9.516;2023-07-24T04:08:47;8.87;;;7.00;;
7761;SDS011;3925;48.636;9.516;2023-07-24T04:11:14;9.27;;;7.70;;
7761;SDS011;3925;48.636;9.516;2023-07-24T04:13:41;9.27;;;8.13;;
7761;SDS011;3925;48.636;9.516;2023-07-24T04:16:08;8.10;;;7.20;;
7761;SDS011;3925;48.636;9.516;2023-07-24T04:18:36;8.30;;;7.37;;
7761;SDS011;3925;48.636;9.516;2023-07-24T04:21:02;9.03;;;7.60;;
7761;SDS011;3925;48.636;9.516;2023-07-24T04:23:29;8.03;;;7.23;;
7761;SDS011;3925;48.636;9.516;2023-07-24T04:25:56;9.53;;;8.10;;
7761;SDS011;3925;48.636;9.516;2023-07-24T04:28:23;10.37;;;8.77;;
7761;SDS011;3925;48.636;9.516;2023-07-24T04:30:50;8.57;;;7.67;;
7761;SDS011;3925;48.636;9.516;2023-07-24T04:33:16;9.07;;;7.43;;
7761;SDS011;3925;48.636;9.516;2023-07-24T04:35:44;11.53;;;8.33;;
7761;SDS011;3925;48.636;9.516;2023-07-24T04:38:14;10.07;;;8.63;;
7761;SDS011;3925;48.636;9.516;2023-07-24T04:40:43;10.80;;;8.50;;
7761;SDS011;3925;48.636;9.516;2023-07-24T04:43:10;8.80;;;7.73;;
7761;SDS011;3925;48.636;9.516;2023-07-24T04:45:36;12.33;;;8.20;;
7761;SDS011;3925;48.636;9.516;2023-07-24T04:48:04;8.43;;;7.53;;
7761;SDS011;3925;48.636;9.516;2023-07-24T04:50:31;9.20;;;8.13;;
7761;SDS011;3925;48.636;9.516;2023-07-24T04:53:00;8.17;;;7.37;;
7761;SDS011;3925;48.636;9.516;2023-07-24T04:55:26;9.27;;;7.80;;
7761;SDS011;3925;48.636;9.516;2023-07-24T04:57:53;8.50;;;7.70;;
7761;SDS011;3925;48.636;9.516;2023-07-24T05:00:20;9.70;;;7.63;;
7761;SDS011;3925;48.636;9.516;2023-07-24T05:02:47;8.80;;;7.87;;
7761;SDS011;3925;48.636;9.516;2023-07-24T05:05:14;10.47;;;8.80;;
7761;SDS011;3925;48.636;9.516;2023-07-24T05:07:40;9.33;;;7.53;;
7761;SDS011;3925;48.636;9.516;2023-07-24T05:10:09;9.07;;;8.17;;
7761;SDS011;3925;48.636;9.516;2023-07-24T05:12:35;8.93;;;7.37;;
7761;SDS011;3925;48.636;9.516;2023-07-24T05:15:03;9.40;;;7.90;;
7761;SDS011;3925;48.636;9.516;2023-07-24T05:17:30;9.50;;;8.43;;
7761;SDS011;3925;48.636;9.516;2023-07-24T05:19:58;8.73;;;7.83;;
7761;SDS011;3925;48.636;9.516;2023-07-24T05:22:25;8.27;;;7.47;;
7761;SDS011;3925;48.636;9.516;2023-07-24T05:24:52;8.30;;;7.23;;
7761;SDS011;3925;48.636;9.516;2023-07-24T05:27:20;9.23;;;8.33;;
7761;SDS011;3925;48.636;9.516;2023-07-24T05:29:47;9.00;;;8.10;;
7761;SDS011;3925;48.636;9.516;2023-07-24T05:32:13;9.30;;;7.30;;
7761;SDS011;3925;48.636;9.516;2023-07-24T05:34:40;9.53;;;7.83;;
7761;SDS011;3925;48.636;9.516;2023-07-24T05:37:07;9.00;;;8.00;;
7761;SDS011;3925;48.636;9.516;2023-07-24T05:39:34;10.93;;;9.07;;
7761;SDS011;3925;48.636;9.516;2023-07-24T05:42:01;7.17;;;6.47;;
7761;SDS011;3925;48.636;9.516;2023-07-24T05:44:30;7.93;;;7.00;;
7761;SDS011;3925;48.636;9.516;2023-07-24T05:46:58;8.30;;;7.40;;
7761;SDS011;3925;48.636;9.516;2023-07-24T05:49:25;8.90;;;8.00;;
7761;SDS011;3925;48.636;9.516;2023-07-24T05:51:52;9.23;;;8.33;;
7761;SDS011;3925;48.636;9.516;2023-07-24T05:54:19;9.70;;;8.13;;
7761;SDS011;3925;48.636;9.516;2023-07-24T05:56:46;7.70;;;7.00;;
7761;SDS011;3925;48.636;9.516;2023-07-24T05:59:12;10.07;;;8.50;;
7761;SDS011;3925;48.636;9.516;2023-07-24T06:01:41;12.20;;;9.20;;
7761;SDS011;3925;48.636;9.516;2023-07-24T06:04:07;11.10;;;8.70;;
7761;SDS011;3925;48.636;9.516;2023-07-24T06:06:34;10.87;;;8.50;;
7761;SDS011;3925;48.636;9.516;2023-07-24T06:09:01;13.53;;;8.10;;
7761;SDS011;3925;48.636;9.516;2023-07-24T06:11:29;9.63;;;8.10;;
7761;SDS011;3925;48.636;9.516;2023-07-24T06:13:55;9.60;;;8.70;;
7761;SDS011;3925;48.636;9.516;2023-07-24T06:16:22;12.17;;;9.20;;
7761;SDS011;3925;48.636;9.516;2023-07-24T06:18:50;13.17;;;8.20;;
7761;SDS011;3925;48.636;9.516;2023-07-24T06:21:17;10.80;;;9.53;;
7761;SDS011;3925;48.636;9.516;2023-07-24T06:23:44;9.90;;;8.37;;
7761;SDS011;3925;48.636;9.516;2023-07-24T06:26:11;13.80;;;8.83;;
7761;SDS011;3925;48.636;9.516;2023-07-24T06:28:38;14.33;;;8.50;;
7761;SDS011;3925;48.636;9.516;2023-07-24T06:31:04;10.00;;;8.20;;
7761;SDS011;3925;48.636;9.516;2023-07-24T06:33:31;10.57;;;7.90;;
7761;SDS011;3925;48.636;9.516;2023-07-24T06:35:59;13.60;;;7.93;;
7761;SDS011;3925;48.636;9.516;2023-07-24T06:38:26;9.27;;;8.37;;
7761;SDS011;3925;48.636;9.516;2023-07-24T06:40:53;10.13;;;8.97;;
7761;SDS011;3925;48.636;9.516;2023-07-24T06:43:20;11.53;;;8.70;;
7761;SDS011;3925;48.636;9.516;2023-07-24T06:45:47;11.70;;;8.40;;
7761;SDS011;3925;48.636;9.516;2023-07-24T06:48:14;8.77;;;7.50;;
7761;SDS011;3925;48.636;9.516;2023-07-24T06:50:40;13.73;;;7.60;;
7761;SDS011;3925;48.636;9.516;2023-07-24T06:53:09;12.80;;;9.60;;
7761;SDS011;3925;48.636;9.516;2023-07-24T06:55:35;10.70;;;8.67;;
7761;SDS011;3925;48.636;9.516;2023-07-24T06:58:03;9.23;;;8.10;;
7761;SDS011;3925;48.636;9.516;2023-07-24T07:00:30;11.30;;;8.33;;
7761;SDS011;3925;48.636;9.516;2023-07-24T07:02:57;9.30;;;8.40;;
7761;SDS011;3925;48.636;9.516;2023-07-24T07:05:24;9.70;;;8.27;;
7761;SDS011;3925;48.636;9.516;2023-07-24T07:07:51;9.67;;;8.47;;
7761;SDS011;3925;48.636;9.516;2023-07-24T07:10:19;12.30;;;8.53;;
7761;SDS011;3925;48.636;9.516;2023-07-24T07:12:46;12.27;;;9.67;;
7761;SDS011;3925;48.636;9.516;2023-07-24T07:15:13;10.03;;;8.17;;
7761;SDS011;3925;48.636;9.516;2023-07-24T07:17:39;8.70;;;7.80;;
7761;SDS011;3925;48.636;9.516;2023-07-24T07:20:06;10.73;;;9.70;;
7761;SDS011;3925;48.636;9.516;2023-07-24T07:22:33;9.53;;;8.23;;
7761;SDS011;3925;48.636;9.516;2023-07-24T07:25:00;9.70;;;8.70;;
7761;SDS011;3925;48.636;9.516;2023-07-24T07:27:29;9.30;;;7.63;;
7761;SDS011;3925;48.636;9.516;2023-07-24T07:29:55;11.50;;;8.90;;
7761;SDS011;3925;48.636;9.516;2023-07-24T07:32:22;12.00;;;9.13;;
7761;SDS011;3925;48.636;9.516;2023-07-24T07:34:49;9.43;;;8.33;;
7761;SDS011;3925;48.636;9.516;2023-07-24T07:37:16;9.63;;;7.83;;
7761;SDS011;3925;48.636;9.516;2023-07-24T07:39:43;10.30;;;8.40;;
7761;SDS011;3925;48.636;9.516;2023-07-24T07:42:10;8.97;;;8.10;;
7761;SDS011;3925;48.636;9.516;2023-07-24T07:44:38;10.07;;;8.30;;
7761;SDS011;3925;48.636;9.516;2023-07-24T07:47:05;10.50;;;8.73;;
7761;SDS011;3925;48.636;9.516;2023-07-24T07:49:32;11.77;;;8.70;;
7761;SDS011;3925;48.636;9.516;2023-07-24T07:51:59;8.20;;;7.43;;
7761;SDS011;3925;48.636;9.516;2023-07-24T07:54:26;12.80;;;8.30;;
7761;SDS011;3925;48.636;9.516;2023-07-24T07:56:52;9.17;;;7.73;;
7761;SDS011;3925;48.636;9.516;2023-07-24T07:59:19;9.67;;;8.17;;
7761;SDS011;3925;48.636;9.516;2023-07-24T08:01:48;8.20;;;7.40;;
7761;SDS011;3925;48.636;9.516;2023-07-24T08:04:15;8.37;;;6.73;;
7761;SDS011;3925;48.636;9.516;2023-07-24T08:06:43;8.93;;;7.13;;
7761;SDS011;3925;48.636;9.516;2023-07-24T08:09:10;9.47;;;7.83;;
7761;SDS011;3925;48.636;9.516;2023-07-24T08:11:37;8.73;;;7.93;;
7761;SDS011;3925;48.636;9.516;2023-07-24T08:14:04;8.90;;;7.80;;
7761;SDS011;3925;48.636;9.516;2023-07-24T08:16:31;10.97;;;7.50;;
7761;SDS011;3925;48.636;9.516;2023-07-24T08:19:00;7.63;;;6.83;;
7761;SDS011;3925;48.636;9.516;2023-07-24T08:21:27;9.03;;;8.13;;
7761;SDS011;3925;48.636;9.516;2023-07-24T08:23:53;8.23;;;6.83;;
7761;SDS011;3925;48.636;9.516;2023-07-24T08:26:22;9.03;;;6.90;;
7761;SDS011;3925;48.636;9.516;2023-07-24T08:28:49;8.27;;;7.40;;
7761;SDS011;3925;48.636;9.516;2023-07-24T08:31:16;10.60;;;7.47;;
7761;SDS011;3925;48.636;9.516;2023-07-24T08:33:43;9.47;;;6.50;;
7761;SDS011;3925;48.636;9.516;2023-07-24T08:36:11;7.37;;;6.60;;
7761;SDS011;3925;48.636;9.516;2023-07-24T08:38:38;10.50;;;6.60;;
7761;SDS011;3925;48.636;9.516;2023-07-24T08:41:06;8.63;;;7.10;;
7761;SDS011;3925;48.636;9.516;2023-07-24T08:43:35;8.70;;;7.70;;
7761;SDS011;3925;48.636;9.516;2023-07-24T08:46:02;6.70;;;6.00;;
7761;SDS011;3925;48.636;9.516;2023-07-24T08:48:31;7.23;;;6.53;;
7761;SDS011;3925;48.636;9.516;2023-07-24T08:51:00;11.70;;;7.57;;
7761;SDS011;3925;48.636;9.516;2023-07-24T08:53:29;8.80;;;6.73;;
7761;SDS011;3925;48.636;9.516;2023-07-24T08:55:57;9.50;;;6.30;;
7761;SDS011;3925;48.636;9.516;2023-07-24T08:58:26;7.37;;;6.37;;
7761;SDS011;3925;48.636;9.516;2023-07-24T09:00:53;7.47;;;6.43;;
7761;SDS011;3925;48.636;9.516;2023-07-24T09:03:21;11.53;;;6.67;;
7761;SDS011;3925;48.636;9.516;2023-07-24T09:05:48;9.40;;;6.50;;
7761;SDS011;3925;48.636;9.516;2023-07-24T09:08:15;7.73;;;6.67;;
7761;SDS011;3925;48.636;9.516;2023-07-24T09:10:43;9.03;;;6.70;;
7761;SDS011;3925;48.636;9.516;2023-07-24T09:13:11;6.93;;;6.23;;
7761;SDS011;3925;48.636;9.516;2023-07-24T09:15:41;6.60;;;5.87;;
7761;SDS011;3925;48.636;9.516;2023-07-24T09:18:08;7.43;;;6.73;;
7761;SDS011;3925;48.636;9.516;2023-07-24T09:20:39;8.20;;;6.63;;
7761;SDS011;3925;48.636;9.516;2023-07-24T09:23:07;7.67;;;6.97;;
7761;SDS011;3925;48.636;9.516;2023-07-24T09:25:35;7.93;;;6.27;;
7761;SDS011;3925;48.636;9.516;2023-07-24T09:28:10;8.47;;;7.10;;
7761;SDS011;3925;48.636;9.516;2023-07-24T09:30:37;7.30;;;6.47;;
7761;SDS011;3925;48.636;9.516;2023-07-24T09:33:04;7.83;;;6.60;;
7761;SDS011;3925;48.636;9.516;2023-07-24T09:35:31;9.53;;;7.97;;
7761;SDS011;3925;48.636;9.516;2023-07-24T09:38:02;7.10;;;6.40;;
7761;SDS011;3925;48.636;9.516;2023-07-24T09:40:37;7.40;;;6.67;;
7761;SDS011;3925;48.636;9.516;2023-07-24T09:43:15;7.00;;;6.30;;
7761;SDS011;3925;48.636;9.516;2023-07-24T09:45:43;7.23;;;6.50;;
7761;SDS011;3925;48.636;9.516;2023-07-24T09:48:10;7.40;;;6.70;;
7761;SDS011;3925;48.636;9.516;2023-07-24T09:50:40;6.80;;;6.20;;
7761;SDS011;3925;48.636;9.516;2023-07-24T09:53:08;9.20;;;7.07;;
7761;SDS011;3925;48.636;9.516;2023-07-24T09:55:41;7.40;;;5.87;;
7761;SDS011;3925;48.636;9.516;2023-07-24T09:58:13;7.30;;;6.53;;
7761;SDS011;3925;48.636;9.516;2023-07-24T10:00:42;9.43;;;7.23;;
7761;SDS011;3925;48.636;9.516;2023-07-24T10:03:12;7.60;;;6.90;;
7761;SDS011;3925;48.636;9.516;2023-07-24T10:05:40;8.03;;;6.50;;
7761;SDS011;3925;48.636;9.516;2023-07-24T10:08:08;7.40;;;6.60;;
7761;SDS011;3925;48.636;9.516;2023-07-24T10:10:35;11.17;;;7.83;;
7761;SDS011;3925;48.636;9.516;2023-07-24T10:13:02;8.40;;;7.30;;
7761;SDS011;3925;48.636;9.516;2023-07-24T10:15:31;12.60;;;7.57;;
7761;SDS011;3925;48.636;9.516;2023-07-24T10:18:02;9.57;;;6.70;;
7761;SDS011;3925;48.636;9.516;2023-07-24T10:20:33;8.53;;;7.33;;
7761;SDS011;3925;48.636;9.516;2023-07-24T10:23:01;7.40;;;6.43;;
7761;SDS011;3925;48.636;9.516;2023-07-24T10:25:29;8.17;;;6.80;;
7761;SDS011;3925;48.636;9.516;2023-07-24T10:28:00;8.43;;;7.17;;
7761;SDS011;3925;48.636;9.516;2023-07-24T10:30:33;10.73;;;7.60;;
7761;SDS011;3925;48.636;9.516;2023-07-24T10:33:08;9.47;;;7.10;;
7761;SDS011;3925;48.636;9.516;2023-07-24T10:35:37;10.90;;;6.90;;
7761;SDS011;3925;48.636;9.516;2023-07-24T10:38:04;9.77;;;7.43;;
7761;SDS011;3925;48.636;9.516;2023-07-24T10:40:32;12.30;;;8.50;;
7761;SDS011;3925;48.636;9.516;2023-07-24T10:43:00;8.03;;;7.20;;
7761;SDS011;3925;48.636;9.516;2023-07-24T10:45:41;13.40;;;8.07;;
7761;SDS011;3925;48.636;9.516;2023-07-24T10:48:09;9.93;;;7.83;;
7761;SDS011;3925;48.636;9.516;2023-07-24T10:50:37;7.53;;;6.63;;
7761;SDS011;3925;48.636;9.516;2023-07-24T10:53:05;10.07;;;7.27;;
7761;SDS011;3925;48.636;9.516;2023-07-24T10:55:32;9.40;;;8.40;;
7761;SDS011;3925;48.636;9.516;2023-07-24T10:57:58;10.40;;;8.93;;
7761;SDS011;3925;48.636;9.516;2023-07-24T11:00:25;10.57;;;8.13;;
7761;SDS011;3925;48.636;9.516;2023-07-24T11:02:54;11.60;;;8.30;;
7761;SDS011;3925;48.636;9.516;2023-07-24T11:05:21;14.80;;;8.83;;
7761;SDS011;3925;48.636;9.516;2023-07-24T11:07:48;8.90;;;8.00;;
7761;SDS011;3925;48.636;9.516;2023-07-24T11:10:16;9.63;;;8.63;;
7761;SDS011;3925;48.636;9.516;2023-07-24T11:12:42;8.97;;;7.13;;
7761;SDS011;3925;48.636;9.516;2023-07-24T11:15:10;8.57;;;7.73;;
7761;SDS011;3925;48.636;9.516;2023-07-24T11:17:39;11.03;;;6.80;;
7761;SDS011;3925;48.636;9.516;2023-07-24T11:20:09;7.67;;;6.80;;
7761;SDS011;3925;48.636;9.516;2023-07-24T11:22:41;7.60;;;6.50;;
7761;SDS011;3925;48.636;9.516;2023-07-24T11:25:09;8.20;;;6.70;;
7761;SDS011;3925;48.636;9.516;2023-07-24T11:27:40;8.17;;;7.47;;
7761;SDS011;3925;48.636;9.516;2023-07-24T11:30:09;10.00;;;6.60;;
7761;SDS011;3925;48.636;9.516;2023-07-24T11:32:37;8.77;;;6.57;;
7761;SDS011;3925;48.636;9.516;2023-07-24T11:35:05;7.60;;;6.80;;
7761;SDS011;3925;48.636;9.516;2023-07-24T11:37:35;8.70;;;6.67;;
7761;SDS011;3925;48.636;9.516;2023-07-24T11:40:03;8.63;;;6.90;;
7761;SDS011;3925;48.636;9.516;2023-07-24T11:42:36;6.97;;;6.27;;
7761;SDS011;3925;48.636;9.516;2023-07-24T11:45:05;7.63;;;5.70;;
7761;SDS011;3925;48.636;9.516;2023-07-24T11:47:41;5.27;;;4.60;;
7761;SDS011;3925;48.636;9.516;2023-07-24T11:50:09;6.57;;;5.97;;
7761;SDS011;3925;48.636;9.516;2023-07-24T11:52:41;6.37;;;5.73;;
7761;SDS011;3925;48.636;9.516;2023-07-24T11:55:09;5.57;;;5.07;;
7761;SDS011;3925;48.636;9.516;2023-07-24T11:57:36;6.90;;;6.17;;
7761;SDS011;3925;48.636;9.516;2023-07-24T12:00:04;6.00;;;5.07;;
7761;SDS011;3925;48.636;9.516;2023-07-24T12:02:33;6.53;;;5.43;;
7761;SDS011;3925;48.636;9.516;2023-07-24T12:05:00;4.73;;;4.33;;
7761;SDS011;3925;48.636;9.516;2023-07-24T12:07:31;6.00;;;5.20;;
7761;SDS011;3925;48.636;9.516;2023-07-24T12:10:01;5.17;;;4.70;;
7761;SDS011;3925;48.636;9.516;2023-07-24T12:12:36;5.50;;;5.00;;
7761;SDS011;3925;48.636;9.516;2023-07-24T12:15:04;5.33;;;4.67;;
7761;SDS011;3925;48.636;9.516;2023-07-24T12:17:32;5.50;;;5.00;;
7761;SDS011;3925;48.636;9.516;2023-07-24T12:19:58;6.03;;;5.47;;
7761;SDS011;3925;48.636;9.516;2023-07-24T12:22:25;4.70;;;4.30;;
7761;SDS011;3925;48.636;9.516;2023-07-24T12:24:52;6.00;;;5.23;;
7761;SDS011;3925;48.636;9.516;2023-07-24T12:27:20;4.70;;;4.30;;
7761;SDS011;3925;48.636;9.516;2023-07-24T12:29:47;5.23;;;4.73;;
7761;SDS011;3925;48.636;9.516;2023-07-24T12:32:14;5.07;;;4.00;;
7761;SDS011;3925;48.636;9.516;2023-07-24T12:34:41;4.93;;;4.43;;
7761;SDS011;3925;48.636;9.516;2023-07-24T12:37:08;4.60;;;4.20;;
7761;SDS011;3925;48.636;9.516;2023-07-24T12:39:34;5.17;;;4.40;;
7761;SDS011;3925;48.636;9.516;2023-07-24T12:42:01;5.53;;;4.40;;
7761;SDS011;3925;48.636;9.516;2023-07-24T12:44:30;4.90;;;4.50;;
7761;SDS011;3925;48.636;9.516;2023-07-24T12:46:57;4.90;;;4.50;;
7761;SDS011;3925;48.636;9.516;2023-07-24T12:49:24;4.80;;;4.40;;
7761;SDS011;3925;48.636;9.516;2023-07-24T12:51:51;4.73;;;4.33;;
7761;SDS011;3925;48.636;9.516;2023-07-24T12:54:17;4.67;;;4.20;;
7761;SDS011;3925;48.636;9.516;2023-07-24T12:56:45;4.80;;;4.40;;
7761;SDS011;3925;48.636;9.516;2023-07-24T12:59:12;5.70;;;3.70;;
7761;SDS011;3925;48.636;9.516;2023-07-24T13:01:40;4.17;;;3.77;;
7761;SDS011;3925;48.636;9.516;2023-07-24T13:04:07;4.80;;;4.40;;
7761;SDS011;3925;48.636;9.516;2023-07-24T13:06:34;5.03;;;4.13;;
7761;SDS011;3925;48.636;9.516;2023-07-24T13:09:01;5.67;;;3.97;;
7761;SDS011;3925;48.636;9.516;2023-07-24T13:11:29;4.33;;;3.63;;
7761;SDS011;3925;48.636;9.516;2023-07-24T13:13:56;4.50;;;3.70;;
7761;SDS011;3925;48.636;9.516;2023-07-24T13:16:23;4.67;;;3.93;;
7761;SDS011;3925;48.636;9.516;2023-07-24T13:18:51;3.90;;;3.60;;
7761;SDS011;3925;48.636;9.516;2023-07-24T13:21:18;3.97;;;3.60;;
7761;SDS011;3925;48.636;9.516;2023-07-24T13:23:45;4.30;;;3.90;;
7761;SDS011;3925;48.636;9.516;2023-07-24T13:26:12;4.57;;;4.07;;
7761;SDS011;3925;48.636;9.516;2023-07-24T13:28:39;4.77;;;3.87;;
7761;SDS011;3925;48.636;9.516;2023-07-24T13:31:13;4.03;;;3.73;;
7761;SDS011;3925;48.636;9.516;2023-07-24T13:33:41;4.10;;;3.73;;
7761;SDS011;3925;48.636;9.516;2023-07-24T13:36:09;4.63;;;4.17;;
7761;SDS011;3925;48.636;9.516;2023-07-24T13:38:36;4.00;;;3.63;;
7761;SDS011;3925;48.636;9.516;2023-07-24T13:41:03;4.33;;;3.93;;
7761;SDS011;3925;48.636;9.516;2023-07-24T13:43:31;4.27;;;3.93;;
7761;SDS011;3925;48.636;9.516;2023-07-24T13:45:58;4.13;;;3.83;;
7761;SDS011;3925;48.636;9.516;2023-07-24T13:48:27;4.43;;;4.03;;
7761;SDS011;3925;48.636;9.516;2023-07-24T13:50:54;4.27;;;3.73;;
7761;SDS011;3925;48.636;9.516;2023-07-24T13:53:22;3.57;;;3.27;;
7761;SDS011;3925;48.636;9.516;2023-07-24T13:55:49;3.40;;;2.97;;
7761;SDS011;3925;48.636;9.516;2023-07-24T13:58:16;3.83;;;3.37;;
7761;SDS011;3925;48.636;9.516;2023-07-24T14:00:43;3.77;;;3.47;;
7761;SDS011;3925;48.636;9.516;2023-07-24T14:03:10;4.10;;;3.70;;
7761;SDS011;3925;48.636;9.516;2023-07-24T14:05:37;4.40;;;3.60;;
7761;SDS011;3925;48.636;9.516;2023-07-24T14:08:04;3.13;;;2.83;;
7761;SDS011;3925;48.636;9.516;2023-07-24T14:10:32;3.20;;;2.90;;
7761;SDS011;3925;48.636;9.516;2023-07-24T14:12:59;3.57;;;2.97;;
7761;SDS011;3925;48.636;9.516;2023-07-24T14:15:26;3.53;;;3.20;;
7761;SDS011;3925;48.636;9.516;2023-07-24T14:17:53;4.40;;;3.43;;
7761;SDS011;3925;48.636;9.516;2023-07-24T14:20:20;4.33;;;3.43;;
7761;SDS011;3925;48.636;9.516;2023-07-24T14:22:47;4.77;;;3.10;;
7761;SDS011;3925;48.636;9.516;2023-07-24T14:25:14;4.57;;;3.93;;
7761;SDS011;3925;48.636;9.516;2023-07-24T14:27:42;3.90;;;3.60;;
7761;SDS011;3925;48.636;9.516;2023-07-24T14:30:09;3.77;;;3.47;;
7761;SDS011;3925;48.636;9.516;2023-07-24T14:32:37;3.83;;;3.50;;
7761;SDS011;3925;48.636;9.516;2023-07-24T14:35:04;3.73;;;3.43;;
7761;SDS011;3925;48.636;9.516;2023-07-24T14:37:31;5.83;;;3.97;;
7761;SDS011;3925;48.636;9.516;2023-07-24T14:39:58;3.90;;;3.27;;
7761;SDS011;3925;48.636;9.516;2023-07-24T14:42:25;4.13;;;3.73;;
7761;SDS011;3925;48.636;9.516;2023-07-24T14:44:53;3.20;;;2.90;;
7761;SDS011;3925;48.636;9.516;2023-07-24T14:47:20;3.00;;;2.73;;
7761;SDS011;3925;48.636;9.516;2023-07-24T14:49:47;4.17;;;3.77;;
7761;SDS011;3925;48.636;9.516;2023-07-24T14:52:14;3.20;;;2.90;;
7761;SDS011;3925;48.636;9.516;2023-07-24T14:54:40;3.90;;;3.50;;
7761;SDS011;3925;48.636;9.516;2023-07-24T14:57:07;4.00;;;3.63;;
7761;SDS011;3925;48.636;9.516;2023-07-24T14:59:36;3.70;;;3.40;;
7761;SDS011;3925;48.636;9.516;2023-07-24T15:02:05;6.60;;;3.50;;
7761;SDS011;3925;48.636;9.516;2023-07-24T15:04:33;3.60;;;3.30;;
7761;SDS011;3925;48.636;9.516;2023-07-24T15:07:00;3.47;;;3.17;;
7761;SDS011;3925;48.636;9.516;2023-07-24T15:09:27;4.33;;;3.80;;
7761;SDS011;3925;48.636;9.516;2023-07-24T15:11:54;4.13;;;3.07;;
7761;SDS011;3925;48.636;9.516;2023-07-24T15:14:23;4.40;;;4.00;;
7761;SDS011;3925;48.636;9.516;2023-07-24T15:16:50;4.30;;;3.90;;